createdAt,value
2022-08-04T00:02:30.942Z,20.90
2022-08-04T00:05:10.212Z,20.83
2022-08-04T00:08:05.397Z,20.77
2022-08-04T00:10:37.831Z,20.61
2022-08-04T00:13:10.969Z,20.39
2022-08-04T00:15:43.397Z,20.51
2022-08-04T00:18:17.193Z,20.56
2022-08-04T00:20:48.429Z,20.59
2022-08-04T00:23:20.327Z,20.61
2022-08-04T00:25:51.790Z,20.55
2022-08-04T00:28:24.791Z,20.39
2022-08-04T00:30:56.523Z,20.29
2022-08-04T00:33:28.649Z,20.21
2022-08-04T00:36:02.268Z,20.27
2022-08-04T00:38:33.837Z,20.40
2022-08-04T00:41:16.856Z,20.47
2022-08-04T00:43:56.639Z,20.35
2022-08-04T00:46:49.858Z,20.46
2022-08-04T00:49:35.748Z,20.40
2022-08-04T00:52:31.304Z,20.31
2022-08-04T00:54:55.353Z,20.16
2022-08-04T00:57:45.669Z,19.99
2022-08-04T01:00:18.036Z,20.15
2022-08-04T01:03:15.377Z,20.00
2022-08-04T01:06:07.902Z,20.08
2022-08-04T01:08:47.560Z,19.88
2022-08-04T01:11:28.030Z,20.05
2022-08-04T01:14:01.848Z,19.98
2022-08-04T01:16:35.490Z,19.97
2022-08-04T01:19:13.610Z,19.80
2022-08-04T01:21:47.402Z,19.69
2022-08-04T01:24:29.838Z,19.77
2022-08-04T01:27:04.233Z,19.80
2022-08-04T01:29:41.640Z,19.77
2022-08-04T01:32:17.212Z,19.77
2022-08-04T01:34:56.849Z,19.65
2022-08-04T01:37:47.240Z,19.67
2022-08-04T01:40:18.940Z,19.69
2022-08-04T01:42:52.774Z,19.49
2022-08-04T01:45:26.144Z,19.44
2022-08-04T01:47:58.859Z,19.33
2022-08-04T01:50:31.780Z,19.32
2022-08-04T01:53:04.034Z,19.17
2022-08-04T01:55:54.827Z,19.20
2022-08-04T01:58:10.331Z,19.28
2022-08-04T02:00:44.062Z,19.34
2022-08-04T02:03:15.389Z,19.35
2022-08-04T02:06:03.603Z,19.41
2022-08-04T02:08:44.764Z,19.23
2022-08-04T02:11:18.357Z,19.25
2022-08-04T02:13:52.176Z,19.21
2022-08-04T02:16:41.099Z,19.29
2022-08-04T02:19:43.705Z,19.25
2022-08-04T02:22:17.369Z,19.21
2022-08-04T02:24:51.131Z,18.97
2022-08-04T02:27:26.589Z,18.94
2022-08-04T02:29:58.288Z,18.81
2022-08-04T02:32:36.142Z,18.77
2022-08-04T02:35:09.694Z,18.91
2022-08-04T02:37:43.702Z,19.00
2022-08-04T02:40:16.191Z,19.02
2022-08-04T02:42:48.270Z,19.03
2022-08-04T02:45:20.869Z,19.05
2022-08-04T02:48:28.848Z,19.13
2022-08-04T02:50:29.464Z,18.89
2022-08-04T02:53:09.846Z,18.87
2022-08-04T02:55:41.348Z,18.87
2022-08-04T02:58:16.295Z,18.86
2022-08-04T03:00:47.539Z,18.83
2022-08-04T03:03:26.916Z,18.82
2022-08-04T03:06:12.604Z,18.79
2022-08-04T03:09:09.129Z,18.68
2022-08-04T03:12:01.674Z,18.89
2022-08-04T03:14:56.884Z,18.85
2022-08-04T03:17:59.426Z,18.82
2022-08-04T03:21:06.690Z,18.63
2022-08-04T03:23:46.638Z,18.74
2022-08-04T03:26:29.152Z,18.76
2022-08-04T03:29:36.152Z,18.72
2022-08-04T03:32:35.392Z,18.71
2022-08-04T03:35:22.785Z,18.81
2022-08-04T03:37:59.733Z,18.84
2022-08-04T03:40:56.329Z,18.81
2022-08-04T03:44:03.492Z,18.64
2022-08-04T03:46:42.942Z,18.61
2022-08-04T03:49:50.199Z,18.48
2022-08-04T03:52:45.489Z,18.58
2022-08-04T03:55:34.968Z,18.73
2022-08-04T03:58:11.891Z,18.79
2022-08-04T04:00:51.504Z,18.86
2022-08-04T04:03:58.869Z,18.92
2022-08-04T04:06:53.904Z,18.99
2022-08-04T04:09:52.310Z,18.97
2022-08-04T04:12:26.058Z,19.07
2022-08-04T04:15:03.856Z,18.95
2022-08-04T04:17:37.678Z,19.02
2022-08-04T04:20:31.545Z,19.08
2022-08-04T04:23:23.156Z,19.15
2022-08-04T04:26:15.802Z,19.26
2022-08-04T04:29:12.932Z,19.23
2022-08-04T04:31:52.748Z,19.32
2022-08-04T04:35:00.039Z,19.50
2022-08-04T04:37:53.311Z,19.49
2022-08-04T04:40:33.026Z,19.59
2022-08-04T04:43:06.970Z,19.57
2022-08-04T04:46:00.742Z,19.78
2022-08-04T04:48:46.938Z,19.92
2022-08-04T04:51:23.615Z,20.14
2022-08-04T04:54:00.012Z,20.15
2022-08-04T04:56:49.468Z,20.31
2022-08-04T04:59:26.055Z,20.37
2022-08-04T05:02:09.079Z,20.68
2022-08-04T05:05:01.618Z,20.92
2022-08-04T05:07:53.656Z,21.11
2022-08-04T05:10:44.327Z,21.34
2022-08-04T05:14:34.553Z,21.42
2022-08-04T05:16:30.226Z,21.50
2022-08-04T05:19:23.874Z,21.56
2022-08-04T05:22:04.994Z,21.64
2022-08-04T05:24:38.683Z,21.76
2022-08-04T05:27:12.575Z,21.99
2022-08-04T05:29:51.128Z,22.05
2022-08-04T05:32:28.220Z,22.19
2022-08-04T05:35:02.047Z,22.24
2022-08-04T05:37:35.682Z,22.13
2022-08-04T05:40:09.022Z,22.41
2022-08-04T05:42:44.208Z,22.34
2022-08-04T05:45:15.774Z,22.44
2022-08-04T05:47:47.162Z,22.42
2022-08-04T05:50:20.466Z,22.59
2022-08-04T05:52:53.615Z,22.66
2022-08-04T05:55:57.025Z,22.88
2022-08-04T05:58:03.350Z,23.04
2022-08-04T06:00:41.108Z,23.10
2022-08-04T06:03:11.981Z,23.21
2022-08-04T06:05:45.286Z,23.32
2022-08-04T06:08:16.442Z,23.42
2022-08-04T06:10:49.646Z,23.64
2022-08-04T06:13:46.723Z,23.70
2022-08-04T06:15:59.196Z,23.64
2022-08-04T06:20:00.685Z,23.87
2022-08-04T06:21:16.268Z,23.87
2022-08-04T06:23:53.210Z,24.08
2022-08-04T06:26:18.201Z,24.13
2022-08-04T06:28:53.083Z,24.20
2022-08-04T06:32:26.930Z,24.45
2022-08-04T06:34:17.915Z,24.58
2022-08-04T06:36:50.147Z,24.69
2022-08-04T06:39:24.113Z,24.92
2022-08-04T06:42:17.436Z,24.94
2022-08-04T06:44:31.364Z,25.01
2022-08-04T06:47:03.230Z,25.11
2022-08-04T06:49:44.217Z,25.20
2022-08-04T06:54:39.873Z,25.52
2022-08-04T06:57:13.189Z,25.35
2022-08-04T06:59:46.720Z,25.47
2022-08-04T07:02:20.753Z,25.69
2022-08-04T07:04:52.475Z,25.93
2022-08-04T07:07:34.018Z,26.08
2022-08-04T07:09:58.130Z,26.23
2022-08-04T07:12:30.395Z,26.25
2022-08-04T07:15:01.797Z,26.53
2022-08-04T07:17:35.065Z,26.55
2022-08-04T07:20:10.195Z,26.43
2022-08-04T07:22:44.308Z,26.73
2022-08-04T07:25:17.430Z,26.88
2022-08-04T07:27:49.967Z,26.70
2022-08-04T07:30:24.918Z,27.04
2022-08-04T07:32:56.435Z,27.11
2022-08-04T07:36:05.603Z,27.30
2022-08-04T07:38:04.176Z,27.23
2022-08-04T07:40:38.747Z,27.46
2022-08-04T07:43:11.259Z,27.43
2022-08-04T07:45:42.203Z,27.72
2022-08-04T07:48:15.034Z,27.74
2022-08-04T07:50:47.086Z,27.65
2022-08-04T07:53:52.985Z,27.68
2022-08-04T07:55:52.072Z,27.90
2022-08-04T07:58:23.131Z,27.69
2022-08-04T08:00:55.193Z,28.12
2022-08-04T08:03:27.387Z,28.08
2022-08-04T08:06:31.691Z,28.11
2022-08-04T08:08:31.899Z,28.53
2022-08-04T08:11:03.288Z,28.57
2022-08-04T08:13:34.871Z,28.52
2022-08-04T08:16:06.920Z,28.67
2022-08-04T08:18:37.887Z,28.70
2022-08-04T08:21:09.025Z,28.69
2022-08-04T08:23:41.195Z,28.66
2022-08-04T08:26:12.401Z,29.00
2022-08-04T08:28:43.663Z,29.06
2022-08-04T08:31:57.688Z,29.21
2022-08-04T08:33:57.028Z,29.35
2022-08-04T08:36:31.410Z,29.10
2022-08-04T08:39:14.362Z,29.49
2022-08-04T08:42:08.081Z,29.64
2022-08-04T08:45:17.629Z,29.46
2022-08-04T08:48:13.991Z,29.59
2022-08-04T08:50:56.928Z,29.85
2022-08-04T08:53:47.700Z,29.78
2022-08-04T08:56:55.110Z,29.89
2022-08-04T08:59:51.708Z,29.90
2022-08-04T09:02:48.531Z,30.26
2022-08-04T09:05:24.084Z,30.04
2022-08-04T09:08:00.504Z,30.20
2022-08-04T09:10:39.742Z,30.14
2022-08-04T09:13:46.702Z,30.11
2022-08-04T09:16:42.153Z,30.02
2022-08-04T09:19:37.412Z,30.33
2022-08-04T09:22:13.105Z,30.49
2022-08-04T09:24:54.841Z,30.22
2022-08-04T09:27:48.527Z,30.56
2022-08-04T09:30:22.382Z,30.68
2022-08-04T09:33:05.810Z,30.73
2022-08-04T09:35:54.664Z,30.34
2022-08-04T09:38:35.983Z,30.73
2022-08-04T09:41:35.876Z,30.71
2022-08-04T09:44:50.315Z,30.72
2022-08-04T09:46:40.788Z,31.05
2022-08-04T09:49:13.726Z,31.07
2022-08-04T09:52:13.716Z,30.99
2022-08-04T09:54:50.549Z,30.82
2022-08-04T09:57:37.244Z,30.88
2022-08-04T10:00:11.262Z,31.21
2022-08-04T10:02:48.578Z,31.13
2022-08-04T10:05:26.735Z,31.04
2022-08-04T10:08:16.110Z,31.19
2022-08-04T10:11:03.320Z,31.29
2022-08-04T10:13:40.598Z,31.33
2022-08-04T10:16:17.740Z,31.31
2022-08-04T10:19:22.779Z,31.25
2022-08-04T10:22:29.063Z,31.13
2022-08-04T10:24:52.433Z,31.41
2022-08-04T10:27:38.585Z,31.37
2022-08-04T10:30:15.213Z,31.28
2022-08-04T10:32:53.205Z,31.71
2022-08-04T10:35:27.269Z,31.81
2022-08-04T10:38:04.050Z,32.09
2022-08-04T10:40:49.891Z,32.20
2022-08-04T10:43:57.404Z,32.30
2022-08-04T10:46:40.310Z,31.99
2022-08-04T10:49:16.796Z,32.21
2022-08-04T10:52:08.713Z,32.42
2022-08-04T10:55:02.407Z,32.24
2022-08-04T10:57:39.279Z,32.13
2022-08-04T11:00:15.040Z,31.73
2022-08-04T11:03:08.979Z,31.95
2022-08-04T11:05:52.338Z,32.45
2022-08-04T11:08:29.014Z,32.47
2022-08-04T11:11:22.771Z,32.24
2022-08-04T11:14:03.032Z,32.53
2022-08-04T11:16:39.831Z,32.48
2022-08-04T11:19:13.739Z,32.33
2022-08-04T11:21:47.981Z,32.21
2022-08-04T11:24:41.958Z,32.70
2022-08-04T11:27:19.135Z,32.58
2022-08-04T11:30:09.721Z,32.71
2022-08-04T11:32:48.173Z,32.64
2022-08-04T11:35:38.569Z,32.90
2022-08-04T11:38:32.387Z,32.81
2022-08-04T11:41:06.057Z,33.12
2022-08-04T11:44:01.627Z,32.73
2022-08-04T11:46:38.616Z,32.98
2022-08-04T11:49:15.182Z,32.86
2022-08-04T11:51:47.912Z,33.00
2022-08-04T11:54:20.302Z,32.97
2022-08-04T11:56:52.298Z,32.72
2022-08-04T11:59:26.149Z,32.89
2022-08-04T12:02:24.586Z,32.88
2022-08-04T12:05:02.827Z,32.85
2022-08-04T12:07:42.661Z,33.15
2022-08-04T12:10:41.249Z,32.97
2022-08-04T12:13:24.098Z,32.79
2022-08-04T12:16:17.982Z,33.12
2022-08-04T12:19:01.470Z,33.16
2022-08-04T12:21:50.268Z,33.20
2022-08-04T12:24:20.433Z,33.45
2022-08-04T12:27:00.355Z,32.98
2022-08-04T12:29:34.095Z,33.23
2022-08-04T12:32:10.859Z,33.22
2022-08-04T12:34:44.904Z,33.10
2022-08-04T12:37:37.431Z,33.60
2022-08-04T12:40:29.300Z,33.28
2022-08-04T12:43:25.874Z,32.91
2022-08-04T12:45:59.969Z,32.96
2022-08-04T12:48:33.667Z,33.24
2022-08-04T12:51:06.626Z,33.23
2022-08-04T12:53:51.175Z,33.05
2022-08-04T12:56:20.383Z,32.95
2022-08-04T12:58:53.971Z,32.90
2022-08-04T13:02:10.718Z,33.05
2022-08-04T13:04:05.860Z,32.77
2022-08-04T13:06:39.553Z,32.97
2022-08-04T13:09:19.750Z,33.02
2022-08-04T13:11:53.377Z,33.03
2022-08-04T13:14:27.760Z,32.77
2022-08-04T13:17:04.736Z,32.93
2022-08-04T13:19:41.332Z,32.93
2022-08-04T13:22:10.970Z,33.04
2022-08-04T13:25:18.288Z,33.03
2022-08-04T13:27:20.145Z,32.83
2022-08-04T13:29:58.719Z,32.77
2022-08-04T13:32:29.121Z,32.58
2022-08-04T13:35:02.656Z,32.89
2022-08-04T13:37:39.727Z,32.84
2022-08-04T13:40:13.886Z,32.91
2022-08-04T13:42:47.980Z,32.88
2022-08-04T13:45:21.907Z,32.31
2022-08-04T13:47:55.830Z,32.60
2022-08-04T13:50:35.982Z,32.65
2022-08-04T13:53:07.433Z,32.76
2022-08-04T13:55:39.859Z,32.53
2022-08-04T13:58:14.068Z,32.53
2022-08-04T14:00:51.167Z,32.34
2022-08-04T14:03:53.392Z,32.32
2022-08-04T14:06:37.942Z,32.27
2022-08-04T14:09:35.253Z,32.61
2022-08-04T14:12:38.321Z,32.39
2022-08-04T14:14:49.728Z,32.39
2022-08-04T14:17:29.917Z,32.15
2022-08-04T14:20:02.674Z,32.30
2022-08-04T14:22:36.324Z,32.12
2022-08-04T14:25:20.228Z,31.92
2022-08-04T14:27:56.842Z,32.09
2022-08-04T14:30:39.043Z,32.10
2022-08-04T14:34:00.563Z,32.39
2022-08-04T14:35:50.284Z,32.03
2022-08-04T14:38:19.959Z,31.74
2022-08-04T14:40:50.885Z,31.71
2022-08-04T14:43:23.352Z,31.84
2022-08-04T14:45:58.281Z,31.74
2022-08-04T14:48:29.308Z,31.78
2022-08-04T14:51:00.508Z,31.77
2022-08-04T14:53:31.756Z,31.81
2022-08-04T14:56:03.422Z,31.80
2022-08-04T14:58:39.245Z,31.99
2022-08-04T15:01:12.603Z,31.60
2022-08-04T15:03:50.057Z,31.81
2022-08-04T15:06:22.298Z,31.79
2022-08-04T15:08:53.807Z,31.70
2022-08-04T15:11:26.390Z,31.78
2022-08-04T15:13:59.512Z,31.88
2022-08-04T15:16:33.007Z,31.57
2022-08-04T15:19:04.424Z,31.52
2022-08-04T15:21:37.130Z,31.75
2022-08-04T15:24:08.639Z,31.45
2022-08-04T15:26:42.710Z,31.46
2022-08-04T15:29:19.318Z,31.36
2022-08-04T15:32:06.006Z,31.02
2022-08-04T15:34:24.880Z,31.20
2022-08-04T15:37:00.217Z,31.69
2022-08-04T15:39:49.105Z,31.54
2022-08-04T15:42:32.534Z,31.14
2022-08-04T15:45:18.486Z,31.24
2022-08-04T15:48:09.023Z,31.45
2022-08-04T15:50:46.007Z,31.35
2022-08-04T15:53:23.115Z,31.34
2022-08-04T15:55:50.134Z,31.17
2022-08-04T15:58:24.744Z,31.07
2022-08-04T16:01:04.756Z,31.04
2022-08-04T16:03:58.831Z,31.08
2022-08-04T16:06:21.220Z,31.13
2022-08-04T16:08:57.860Z,30.93
2022-08-04T16:11:32.701Z,31.00
2022-08-04T16:14:09.327Z,31.01
2022-08-04T16:16:44.957Z,31.02
2022-08-04T16:19:35.891Z,30.89
2022-08-04T16:22:07.645Z,30.82
2022-08-04T16:24:43.137Z,30.53
2022-08-04T16:27:17.115Z,30.75
2022-08-04T16:29:50.040Z,30.72
2022-08-04T16:32:24.054Z,30.54
2022-08-04T16:35:01.097Z,30.34
2022-08-04T16:37:38.557Z,30.56
2022-08-04T16:40:34.526Z,30.40
2022-08-04T16:43:10.185Z,30.35
2022-08-04T16:45:47.007Z,30.29
2022-08-04T16:48:23.591Z,30.23
2022-08-04T16:51:04.688Z,30.19
2022-08-04T16:54:05.015Z,30.21
2022-08-04T16:56:33.519Z,30.33
2022-08-04T16:59:11.632Z,30.35
2022-08-04T17:01:56.268Z,30.09
2022-08-04T17:04:35.469Z,30.26
2022-08-04T17:07:09.096Z,30.18
2022-08-04T17:09:41.439Z,30.16
2022-08-04T17:12:13.059Z,30.12
2022-08-04T17:14:45.940Z,30.21
2022-08-04T17:17:19.280Z,30.15
2022-08-04T17:19:54.828Z,30.20
2022-08-04T17:22:25.965Z,30.13
2022-08-04T17:25:00.706Z,30.07
2022-08-04T17:28:08.476Z,30.00
2022-08-04T17:30:04.732Z,29.90
2022-08-04T17:32:35.833Z,29.81
2022-08-04T17:35:09.239Z,29.73
2022-08-04T17:40:26.121Z,29.85
2022-08-04T17:42:52.231Z,29.78
2022-08-04T17:47:58.282Z,29.66
2022-08-04T17:50:31.778Z,29.66
2022-08-04T17:53:12.528Z,29.45
2022-08-04T17:55:49.523Z,29.46
2022-08-04T17:58:26.843Z,29.24
2022-08-04T18:01:23.486Z,29.23
2022-08-04T18:03:42.505Z,29.07
2022-08-04T18:06:15.542Z,28.87
2022-08-04T18:08:50.477Z,28.77
2022-08-04T18:11:29.492Z,28.80
2022-08-04T18:13:57.092Z,28.59
2022-08-04T18:16:28.672Z,28.51
2022-08-04T18:19:19.025Z,28.43
2022-08-04T18:21:59.448Z,28.39
2022-08-04T18:24:34.582Z,28.19
2022-08-04T18:26:56.874Z,28.14
2022-08-04T18:29:31.666Z,28.14
2022-08-04T18:32:01.615Z,28.06
2022-08-04T18:34:32.624Z,27.81
2022-08-04T18:37:04.910Z,27.93
2022-08-04T18:40:09.545Z,27.60
2022-08-04T18:42:10.620Z,27.40
2022-08-04T18:44:53.056Z,27.55
2022-08-04T18:50:58.552Z,27.36
2022-08-04T18:52:24.099Z,27.37
2022-08-04T18:54:53.309Z,27.25
2022-08-04T18:57:59.316Z,27.36
2022-08-04T19:00:00.563Z,27.25
2022-08-04T19:02:32.779Z,27.29
2022-08-04T19:05:05.330Z,27.36
2022-08-04T19:08:01.930Z,27.46
2022-08-04T19:10:23.686Z,27.57
2022-08-04T19:12:43.522Z,27.12
2022-08-04T19:15:19.509Z,26.93
2022-08-04T19:17:56.999Z,27.20
2022-08-04T19:20:25.975Z,27.23
2022-08-04T19:24:10.711Z,27.00
2022-08-04T19:25:58.487Z,27.10
2022-08-04T19:28:05.724Z,26.70
2022-08-04T19:30:40.281Z,26.53
2022-08-04T19:33:13.663Z,26.46
2022-08-04T19:35:50.784Z,26.32
2022-08-04T19:38:21.091Z,26.18
2022-08-04T19:40:54.355Z,25.92
2022-08-04T19:43:27.405Z,26.07
2022-08-04T19:46:00.618Z,26.07
2022-08-04T19:48:32.500Z,26.16
2022-08-04T19:51:04.295Z,26.13
2022-08-04T19:53:43.020Z,25.93
2022-08-04T19:56:10.425Z,26.07
2022-08-04T19:58:48.091Z,26.04
2022-08-04T20:01:33.564Z,26.04
2022-08-04T20:04:10.407Z,26.08
2022-08-04T20:06:24.566Z,26.06
2022-08-04T20:08:55.553Z,25.98
2022-08-04T20:11:28.466Z,26.04
2022-08-04T20:13:59.802Z,25.99
2022-08-04T20:16:32.971Z,26.04
2022-08-04T20:19:06.230Z,26.05
2022-08-04T20:21:55.544Z,25.88
2022-08-04T20:24:39.202Z,25.94
2022-08-04T20:26:43.639Z,25.93
2022-08-04T20:29:39.001Z,25.64
2022-08-04T20:31:49.681Z,25.66
2022-08-04T20:34:22.544Z,25.60
2022-08-04T20:36:54.822Z,25.56
2022-08-04T20:39:27.180Z,25.68
2022-08-04T20:41:58.715Z,25.73
2022-08-04T20:44:31.157Z,25.56
2022-08-04T20:47:02.682Z,25.58
2022-08-04T20:49:36.069Z,25.42
2022-08-04T20:54:42.121Z,25.49
2022-08-04T20:57:16.613Z,25.40
2022-08-04T21:02:22.759Z,25.26
2022-08-04T21:04:54.147Z,25.22
2022-08-04T21:07:25.722Z,25.18
2022-08-04T21:09:57.328Z,24.90
2022-08-04T21:12:29.197Z,25.06
2022-08-04T21:15:13.568Z,24.81
2022-08-04T21:17:56.791Z,24.75
2022-08-04T21:20:12.880Z,24.81
2022-08-04T21:22:43.644Z,24.81
2022-08-04T21:25:16.654Z,24.94
2022-08-04T21:27:50.622Z,24.89
2022-08-04T21:30:25.034Z,24.75
2022-08-04T21:32:55.716Z,24.70
2022-08-04T21:35:39.114Z,24.74
2022-08-04T21:38:01.312Z,24.62
2022-08-04T21:40:38.644Z,24.66
2022-08-04T21:43:07.718Z,24.77
2022-08-04T21:45:39.259Z,24.82
2022-08-04T21:48:10.506Z,24.63
2022-08-04T21:50:41.807Z,24.75
2022-08-04T21:53:14.356Z,24.73
2022-08-04T21:56:04.809Z,24.39
2022-08-04T21:58:19.660Z,24.25
2022-08-04T22:00:52.774Z,24.20
2022-08-04T22:03:51.888Z,24.07
2022-08-04T22:05:59.603Z,23.85
2022-08-04T22:08:30.703Z,23.93
2022-08-04T22:11:02.191Z,23.86
2022-08-04T22:13:52.538Z,23.82
2022-08-04T22:16:07.694Z,23.67
2022-08-04T22:18:38.758Z,23.62
2022-08-04T22:21:12.137Z,23.80
2022-08-04T22:23:45.412Z,23.70
2022-08-04T22:26:20.135Z,23.79
2022-08-04T22:28:51.509Z,23.69
2022-08-04T22:31:24.754Z,23.60
2022-08-04T22:33:56.305Z,23.50
2022-08-04T22:36:27.625Z,23.49
2022-08-04T22:39:06.569Z,23.46
2022-08-04T22:41:33.960Z,23.41
2022-08-04T22:44:08.278Z,23.53
2022-08-04T22:46:39.908Z,23.36
2022-08-04T22:49:11.407Z,23.27
2022-08-04T22:51:50.820Z,23.45
2022-08-04T22:54:14.941Z,23.50
2022-08-04T22:56:46.017Z,23.10
2022-08-04T22:59:17.017Z,23.29
2022-08-04T23:02:00.341Z,23.24
2022-08-04T23:04:20.477Z,23.07
2022-08-04T23:06:51.620Z,23.15
2022-08-04T23:09:49.413Z,23.26
2022-08-04T23:12:22.289Z,22.95
2022-08-04T23:14:27.922Z,22.98
2022-08-04T23:16:58.982Z,23.12
2022-08-04T23:19:31.943Z,23.13
2022-08-04T23:22:02.448Z,22.96
2022-08-04T23:24:33.589Z,23.08
2022-08-04T23:27:06.392Z,22.99
2022-08-04T23:29:52.414Z,22.97
2022-08-04T23:32:14.448Z,22.88
2022-08-04T23:34:47.032Z,22.79
2022-08-04T23:37:17.998Z,22.70
2022-08-04T23:40:14.418Z,22.76
2022-08-04T23:42:21.747Z,22.80
2022-08-04T23:44:55.260Z,22.79
2022-08-04T23:48:15.874Z,22.88
2022-08-04T23:49:59.320Z,22.72
2022-08-04T23:52:31.063Z,22.66
2022-08-04T23:55:02.591Z,22.74
2022-08-04T23:58:05.309Z,22.71
